createdAt,value
2019-03-17T00:01:08.861Z,3.10
2019-03-17T00:03:41.548Z,2.45
2019-03-17T00:06:11.770Z,2.60
2019-03-17T00:08:42.500Z,2.90
2019-03-17T00:11:12.823Z,3.08
2019-03-17T00:13:41.374Z,2.85
2019-03-17T00:16:14.872Z,3.12
2019-03-17T00:18:46.623Z,3.05
2019-03-17T00:21:15.703Z,2.80
2019-03-17T00:23:46.791Z,2.72
2019-03-17T00:26:15.442Z,2.90
2019-03-17T00:28:47.283Z,3.17
2019-03-17T00:31:23.913Z,3.10
2019-03-17T00:33:49.095Z,3.37
2019-03-17T00:36:19.342Z,3.20
2019-03-17T00:38:50.008Z,2.37
2019-03-17T00:41:18.902Z,2.62
2019-03-17T00:43:48.107Z,2.60
2019-03-17T00:46:17.286Z,3.35
2019-03-17T00:48:45.915Z,3.17
2019-03-17T00:51:14.998Z,2.37
2019-03-17T00:53:45.633Z,2.30
2019-03-17T00:56:15.008Z,2.70
2019-03-17T00:58:45.410Z,2.72
2019-03-17T01:01:16.290Z,2.70
2019-03-17T01:03:46.556Z,2.72
2019-03-17T01:06:18.782Z,2.50
2019-03-17T01:08:50.431Z,2.52
2019-03-17T01:11:19.042Z,2.87
2019-03-17T01:13:47.623Z,2.62
2019-03-17T01:16:18.608Z,2.87
2019-03-17T01:18:48.846Z,2.85
2019-03-17T01:21:17.450Z,2.45
2019-03-17T01:23:52.070Z,2.27
2019-03-17T01:26:22.996Z,2.65
2019-03-17T01:28:53.427Z,2.77
2019-03-17T01:31:26.703Z,2.60
2019-03-17T01:33:58.739Z,2.55
2019-03-17T01:36:27.272Z,2.65
2019-03-17T01:38:57.483Z,2.75
2019-03-17T01:41:29.064Z,2.47
2019-03-17T01:44:00.887Z,2.47
2019-03-17T01:46:29.784Z,2.30
2019-03-17T01:48:58.398Z,3.33
2019-03-17T01:51:28.616Z,2.35
2019-03-17T01:54:03.507Z,3.05
2019-03-17T01:56:34.100Z,2.75
2019-03-17T01:59:03.495Z,2.40
2019-03-17T02:01:35.365Z,2.55
2019-03-17T02:04:04.626Z,2.52
2019-03-17T02:06:35.465Z,2.30
2019-03-17T02:09:08.424Z,2.37
2019-03-17T02:11:37.241Z,2.50
2019-03-17T02:14:07.504Z,2.22
2019-03-17T02:16:38.394Z,2.35
2019-03-17T02:19:09.441Z,2.10
2019-03-17T02:21:40.124Z,2.55
2019-03-17T02:24:09.199Z,2.30
2019-03-17T02:26:40.952Z,2.52
2019-03-17T02:29:11.139Z,2.30
2019-03-17T02:31:44.673Z,2.22
2019-03-17T02:34:13.744Z,2.10
2019-03-17T02:36:44.812Z,2.42
2019-03-17T02:39:16.744Z,2.15
2019-03-17T02:41:50.712Z,2.20
2019-03-17T02:44:19.803Z,2.10
2019-03-17T02:46:49.158Z,2.27
2019-03-17T02:49:21.932Z,2.52
2019-03-17T02:51:52.194Z,2.30
2019-03-17T02:54:21.210Z,2.12
2019-03-17T02:56:51.365Z,1.90
2019-03-17T02:59:28.497Z,2.25
2019-03-17T03:01:58.586Z,2.35
2019-03-17T03:04:27.444Z,2.02
2019-03-17T03:06:59.029Z,1.98
2019-03-17T03:09:28.035Z,2.35
2019-03-17T03:11:58.671Z,2.15
2019-03-17T03:14:27.763Z,1.98
2019-03-17T03:16:56.651Z,1.70
2019-03-17T03:19:26.847Z,1.85
2019-03-17T03:21:57.844Z,1.70
2019-03-17T03:24:28.658Z,2.00
2019-03-17T03:26:59.549Z,1.82
2019-03-17T03:29:30.866Z,2.00
2019-03-17T03:32:02.629Z,2.30
2019-03-17T03:34:31.650Z,1.75
2019-03-17T03:37:02.153Z,2.00
2019-03-17T03:39:32.480Z,1.87
2019-03-17T03:42:01.452Z,1.85
2019-03-17T03:44:30.793Z,2.15
2019-03-17T03:46:59.575Z,1.47
2019-03-17T03:49:28.395Z,1.80
2019-03-17T03:51:59.184Z,2.20
2019-03-17T03:54:32.500Z,2.25
2019-03-17T03:57:03.957Z,2.05
2019-03-17T03:59:33.919Z,1.77
2019-03-17T04:02:07.584Z,1.90
2019-03-17T04:07:05.458Z,2.30
2019-03-17T04:09:34.643Z,1.80
2019-03-17T04:12:05.490Z,1.80
2019-03-17T04:14:34.442Z,1.90
2019-03-17T04:17:04.997Z,1.72
2019-03-17T04:19:33.608Z,2.02
2019-03-17T04:22:02.583Z,2.35
2019-03-17T04:24:31.941Z,2.20
2019-03-17T04:27:02.409Z,2.00
2019-03-17T04:29:35.969Z,2.10
2019-03-17T04:32:04.732Z,2.02
2019-03-17T04:34:34.846Z,2.37
2019-03-17T04:37:03.842Z,2.15
2019-03-17T04:39:34.205Z,2.17
2019-03-17T04:42:04.532Z,1.98
2019-03-17T04:44:33.869Z,2.45
2019-03-17T04:47:05.739Z,2.50
2019-03-17T04:49:34.939Z,2.05
2019-03-17T04:52:04.386Z,2.15
2019-03-17T04:54:33.444Z,2.27
2019-03-17T04:57:02.794Z,2.35
2019-03-17T04:59:36.245Z,2.12
2019-03-17T05:02:07.529Z,2.55
2019-03-17T05:04:40.248Z,2.37
2019-03-17T05:07:12.733Z,2.80
2019-03-17T05:09:43.778Z,2.35
2019-03-17T05:12:13.647Z,2.35
2019-03-17T05:14:43.931Z,2.27
2019-03-17T05:17:12.513Z,3.20
2019-03-17T05:19:43.064Z,2.58
2019-03-17T05:22:11.632Z,2.72
2019-03-17T05:24:40.597Z,2.60
2019-03-17T05:27:17.481Z,2.40
2019-03-17T05:29:53.560Z,2.25
2019-03-17T05:32:27.007Z,3.20
2019-03-17T05:34:57.718Z,2.90
2019-03-17T05:37:28.399Z,2.80
2019-03-17T05:39:58.713Z,2.80
2019-03-17T05:42:29.077Z,2.75
2019-03-17T05:44:59.514Z,2.83
2019-03-17T05:47:32.848Z,3.12
2019-03-17T05:50:06.033Z,2.77
2019-03-17T05:52:38.131Z,2.67
2019-03-17T05:55:08.770Z,3.08
2019-03-17T05:57:40.621Z,2.90
2019-03-17T06:00:11.227Z,2.55
2019-03-17T06:02:41.486Z,3.15
2019-03-17T06:05:10.512Z,3.20
2019-03-17T06:07:42.141Z,2.95
2019-03-17T06:10:12.127Z,3.12
2019-03-17T06:12:42.815Z,3.47
2019-03-17T06:15:18.764Z,3.02
2019-03-17T06:17:50.439Z,2.70
2019-03-17T06:20:19.617Z,3.02
2019-03-17T06:22:49.021Z,3.02
2019-03-17T06:25:18.132Z,3.10
2019-03-17T06:27:48.280Z,3.12
2019-03-17T06:30:23.460Z,2.80
2019-03-17T06:32:52.963Z,2.25
2019-03-17T06:35:21.944Z,2.85
2019-03-17T06:37:52.271Z,3.45
2019-03-17T06:40:22.565Z,3.17
2019-03-17T06:42:51.519Z,2.83
2019-03-17T06:45:21.585Z,2.70
2019-03-17T06:47:50.827Z,3.33
2019-03-17T06:50:20.080Z,4.12
2019-03-17T06:52:53.676Z,3.00
2019-03-17T06:55:24.662Z,2.95
2019-03-17T06:57:58.053Z,3.12
2019-03-17T07:00:29.236Z,2.15
2019-03-17T07:03:02.555Z,2.72
2019-03-17T07:05:33.206Z,3.12
2019-03-17T07:08:03.970Z,2.67
2019-03-17T07:10:35.653Z,3.00
2019-03-17T07:13:07.390Z,2.52
2019-03-17T07:15:36.369Z,2.50
2019-03-17T07:18:05.260Z,2.75
2019-03-17T07:20:34.165Z,2.83
2019-03-17T07:23:03.187Z,2.45
2019-03-17T07:25:32.760Z,2.85
2019-03-17T07:28:04.728Z,2.77
2019-03-17T07:30:34.991Z,2.90
2019-03-17T07:33:07.039Z,2.72
2019-03-17T07:35:35.996Z,3.02
2019-03-17T07:38:07.170Z,3.22
2019-03-17T07:40:36.628Z,2.72
2019-03-17T07:43:07.566Z,3.60
2019-03-17T07:45:37.387Z,2.98
2019-03-17T07:48:07.747Z,2.85
2019-03-17T07:50:38.274Z,2.90
2019-03-17T07:53:07.313Z,3.60
2019-03-17T07:55:36.675Z,2.52
2019-03-17T07:58:07.987Z,2.62
2019-03-17T08:00:38.219Z,2.22
2019-03-17T08:03:07.266Z,2.45
2019-03-17T08:05:36.618Z,2.45
2019-03-17T08:08:09.662Z,2.98
2019-03-17T08:10:40.847Z,3.05
2019-03-17T08:13:14.422Z,2.50
2019-03-17T08:15:43.877Z,2.80
2019-03-17T08:18:14.374Z,2.37
2019-03-17T08:20:44.098Z,2.02
2019-03-17T08:23:13.388Z,2.15
2019-03-17T08:25:47.212Z,1.98
2019-03-17T08:28:19.138Z,1.52
2019-03-17T08:30:53.327Z,1.98
2019-03-17T08:33:23.892Z,2.20
2019-03-17T08:35:53.130Z,14.60
2019-03-17T08:38:22.480Z,2.33
2019-03-17T08:40:51.507Z,1.98
2019-03-17T08:43:20.580Z,1.60
2019-03-17T08:45:49.490Z,1.90
2019-03-17T08:48:18.506Z,2.47
2019-03-17T08:50:49.551Z,2.30
2019-03-17T08:53:18.765Z,2.08
2019-03-17T08:55:48.966Z,2.20
2019-03-17T08:58:17.951Z,4.25
2019-03-17T09:00:49.779Z,1.62
2019-03-17T09:03:19.109Z,2.75
2019-03-17T09:05:50.800Z,1.12
2019-03-17T09:08:34.383Z,1.80
2019-03-17T09:10:54.678Z,1.57
2019-03-17T09:13:25.362Z,1.92
2019-03-17T09:15:57.100Z,2.10
2019-03-17T09:18:27.481Z,1.42
2019-03-17T09:20:58.378Z,2.12
2019-03-17T09:23:29.147Z,1.45
2019-03-17T09:25:58.788Z,1.70
2019-03-17T09:28:27.697Z,1.72
2019-03-17T09:31:03.756Z,1.35
2019-03-17T09:33:31.209Z,1.80
2019-03-17T09:36:04.826Z,0.93
2019-03-17T09:41:09.462Z,0.72
2019-03-17T09:43:38.026Z,0.98
2019-03-17T09:46:07.003Z,0.70
2019-03-17T09:48:37.675Z,0.80
2019-03-17T09:51:07.597Z,1.02
2019-03-17T09:53:36.419Z,0.90
2019-03-17T09:56:05.631Z,0.90
2019-03-17T09:58:34.912Z,0.80
2019-03-17T10:01:03.656Z,0.88
2019-03-17T10:03:35.697Z,0.70
2019-03-17T10:06:04.315Z,0.82
2019-03-17T10:08:33.324Z,0.65
2019-03-17T10:11:03.742Z,1.02
2019-03-17T10:13:33.913Z,1.20
2019-03-17T10:16:02.858Z,0.60
2019-03-17T10:18:32.369Z,0.88
2019-03-17T10:21:01.848Z,0.70
2019-03-17T10:23:32.804Z,0.80
2019-03-17T10:26:06.707Z,0.70
2019-03-17T10:28:37.945Z,0.82
2019-03-17T10:31:08.499Z,0.53
2019-03-17T10:33:38.752Z,0.78
2019-03-17T10:36:12.579Z,1.00
2019-03-17T10:38:43.089Z,0.80
2019-03-17T10:41:12.410Z,0.85
2019-03-17T10:43:44.379Z,0.80
2019-03-17T10:46:12.959Z,0.88
2019-03-17T10:48:43.230Z,0.90
2019-03-17T10:51:16.728Z,1.20
2019-03-17T10:53:45.326Z,0.80
2019-03-17T10:56:15.490Z,1.00
2019-03-17T10:58:45.758Z,0.93
2019-03-17T11:01:16.582Z,2.20
2019-03-17T11:03:51.034Z,1.20
2019-03-17T11:06:22.730Z,1.30
2019-03-17T11:08:52.763Z,1.10
2019-03-17T11:11:25.450Z,1.20
2019-03-17T11:13:56.258Z,0.90
2019-03-17T11:16:24.818Z,0.90
2019-03-17T11:18:58.963Z,1.67
2019-03-17T11:21:27.847Z,1.47
2019-03-17T11:23:57.800Z,1.15
2019-03-17T11:26:26.891Z,0.90
2019-03-17T11:28:56.085Z,1.70
2019-03-17T11:31:24.638Z,1.07
2019-03-17T11:33:55.243Z,1.25
2019-03-17T11:36:25.266Z,1.05
2019-03-17T11:38:56.053Z,0.90
2019-03-17T11:41:24.804Z,1.22
2019-03-17T11:43:53.851Z,1.40
2019-03-17T11:46:24.630Z,1.40
2019-03-17T11:48:53.200Z,1.65
2019-03-17T11:51:22.291Z,1.00
2019-03-17T11:53:53.844Z,1.10
2019-03-17T11:56:27.354Z,1.22
2019-03-17T11:58:56.285Z,1.60
2019-03-17T12:01:25.482Z,0.90
2019-03-17T12:03:54.519Z,1.15
2019-03-17T12:06:23.704Z,1.10
2019-03-17T12:08:53.660Z,1.82
2019-03-17T12:11:24.956Z,1.77
2019-03-17T12:13:54.011Z,1.60
2019-03-17T12:16:24.776Z,1.20
2019-03-17T12:18:55.182Z,2.55
2019-03-17T12:21:24.241Z,1.55
2019-03-17T12:23:55.152Z,1.30
2019-03-17T12:26:25.176Z,1.80
2019-03-17T12:28:56.317Z,1.25
2019-03-17T12:31:25.714Z,1.30
2019-03-17T12:33:56.531Z,1.55
2019-03-17T12:36:27.192Z,1.70
2019-03-17T12:39:00.710Z,3.37
2019-03-17T12:41:31.279Z,1.80
2019-03-17T12:44:00.172Z,1.35
2019-03-17T12:46:29.332Z,1.30
2019-03-17T12:49:00.082Z,0.78
2019-03-17T12:51:31.258Z,0.85
2019-03-17T12:54:01.500Z,0.90
2019-03-17T12:56:34.063Z,0.80
2019-03-17T12:59:05.450Z,0.93
2019-03-17T13:01:34.451Z,0.85
2019-03-17T13:04:04.983Z,0.70
2019-03-17T13:06:33.790Z,0.90
2019-03-17T13:09:02.790Z,1.10
2019-03-17T13:11:33.621Z,0.95
2019-03-17T13:14:06.750Z,1.05
2019-03-17T13:16:38.369Z,1.10
2019-03-17T13:19:09.059Z,1.15
2019-03-17T13:21:37.951Z,0.90
2019-03-17T13:24:07.904Z,1.10
2019-03-17T13:26:37.660Z,1.62
2019-03-17T13:29:06.408Z,1.20
2019-03-17T13:31:35.395Z,1.15
2019-03-17T13:34:06.012Z,1.47
2019-03-17T13:36:34.667Z,1.17
2019-03-17T13:39:06.439Z,1.02
2019-03-17T13:41:37.296Z,0.90
2019-03-17T13:44:09.125Z,1.15
2019-03-17T13:46:38.354Z,1.60
2019-03-17T13:49:15.837Z,1.30
2019-03-17T13:51:46.714Z,1.40
2019-03-17T13:54:15.690Z,1.17
2019-03-17T13:56:46.530Z,1.25
2019-03-17T13:59:19.190Z,1.40
2019-03-17T14:01:50.288Z,1.62
2019-03-17T14:04:19.343Z,1.50
2019-03-17T14:06:49.503Z,1.47
2019-03-17T14:09:18.517Z,1.40
2019-03-17T14:11:47.672Z,1.27
2019-03-17T14:14:18.798Z,1.30
2019-03-17T14:16:49.113Z,1.30
2019-03-17T14:19:22.784Z,1.10
2019-03-17T14:24:21.020Z,1.52
2019-03-17T14:26:51.173Z,1.52
2019-03-17T14:29:20.396Z,1.15
2019-03-17T14:31:50.937Z,1.50
2019-03-17T14:34:23.256Z,1.45
2019-03-17T14:36:53.438Z,2.98
2019-03-17T14:39:23.360Z,1.12
2019-03-17T14:41:55.396Z,1.40
2019-03-17T14:44:29.261Z,1.75
2019-03-17T14:46:57.991Z,1.22
2019-03-17T14:49:33.024Z,1.50
2019-03-17T14:52:03.187Z,1.47
2019-03-17T14:54:33.303Z,1.60
2019-03-17T14:57:05.193Z,1.25
2019-03-17T14:59:38.884Z,1.90
2019-03-17T15:04:41.196Z,1.60
2019-03-17T15:07:13.757Z,0.90
2019-03-17T15:09:48.843Z,1.00
2019-03-17T15:12:19.672Z,1.02
2019-03-17T15:14:50.439Z,0.70
2019-03-17T15:17:21.318Z,0.60
2019-03-17T15:19:50.673Z,0.72
2019-03-17T15:22:19.573Z,1.00
2019-03-17T15:24:51.071Z,0.75
2019-03-17T15:27:22.873Z,0.90
2019-03-17T15:29:52.106Z,1.00
2019-03-17T15:32:20.970Z,0.60
2019-03-17T15:34:51.427Z,0.80
2019-03-17T15:37:20.388Z,0.78
2019-03-17T15:39:49.301Z,1.60
2019-03-17T15:42:20.994Z,0.80
2019-03-17T15:44:51.111Z,1.20
2019-03-17T15:47:23.888Z,1.30
2019-03-17T15:49:54.671Z,1.37
2019-03-17T15:52:25.215Z,1.30
2019-03-17T15:54:54.738Z,1.65
2019-03-17T15:57:23.919Z,2.72
2019-03-17T15:59:54.977Z,1.25
2019-03-17T16:02:23.937Z,1.50
2019-03-17T16:04:52.521Z,1.65
2019-03-17T16:07:22.883Z,1.27
2019-03-17T16:09:54.546Z,2.12
2019-03-17T16:12:27.831Z,1.60
2019-03-17T16:17:40.055Z,1.10
2019-03-17T16:20:10.108Z,4.85
2019-03-17T16:22:41.841Z,2.10
2019-03-17T16:25:16.073Z,3.60
2019-03-17T16:27:45.016Z,2.15
2019-03-17T16:30:16.617Z,4.83
2019-03-17T16:32:45.675Z,1.45
2019-03-17T16:35:17.358Z,1.95
2019-03-17T16:37:46.198Z,1.45
2019-03-17T16:40:18.037Z,1.37
2019-03-17T16:42:48.455Z,1.10
2019-03-17T16:45:18.728Z,1.45
2019-03-17T16:47:49.915Z,1.40
2019-03-17T16:50:21.971Z,1.30
2019-03-17T16:52:54.985Z,1.42
2019-03-17T16:55:23.762Z,1.60
2019-03-17T16:57:55.753Z,2.37
2019-03-17T17:00:26.236Z,1.62
2019-03-17T17:02:55.479Z,2.05
2019-03-17T17:05:27.114Z,2.27
2019-03-17T17:07:56.111Z,2.15
2019-03-17T17:10:26.961Z,1.45
2019-03-17T17:12:57.066Z,1.60
2019-03-17T17:15:25.848Z,1.40
2019-03-17T17:17:55.116Z,2.25
2019-03-17T17:20:25.215Z,3.05
2019-03-17T17:22:55.045Z,3.67
2019-03-17T17:25:27.018Z,3.45
2019-03-17T17:27:57.714Z,3.83
2019-03-17T17:30:27.957Z,3.20
2019-03-17T17:32:58.886Z,2.20
2019-03-17T17:35:28.198Z,1.70
2019-03-17T17:37:57.119Z,1.60
2019-03-17T17:40:27.998Z,1.25
2019-03-17T17:42:57.365Z,2.77
2019-03-17T17:45:26.222Z,2.45
2019-03-17T17:47:55.507Z,1.85
2019-03-17T17:50:27.120Z,1.90
2019-03-17T17:52:58.047Z,2.10
2019-03-17T17:55:33.084Z,1.90
2019-03-17T17:58:02.169Z,1.57
2019-03-17T18:00:33.725Z,1.72
2019-03-17T18:03:07.246Z,1.70
2019-03-17T18:05:36.436Z,4.30
2019-03-17T18:08:04.980Z,3.58
2019-03-17T18:10:34.226Z,2.37
2019-03-17T18:13:06.711Z,1.27
2019-03-17T18:15:36.971Z,1.57
2019-03-17T18:18:07.395Z,1.62
2019-03-17T18:20:39.619Z,1.85
2019-03-17T18:23:17.952Z,1.20
2019-03-17T18:25:42.076Z,1.50
2019-03-17T18:28:12.009Z,1.37
2019-03-17T18:30:42.663Z,1.40
2019-03-17T18:33:13.373Z,1.82
2019-03-17T18:35:44.483Z,4.55
2019-03-17T18:38:14.051Z,5.25
2019-03-17T18:40:44.354Z,2.27
2019-03-17T18:43:15.539Z,1.90
2019-03-17T18:45:48.720Z,1.42
2019-03-17T18:48:19.015Z,1.57
2019-03-17T18:50:50.867Z,1.80
2019-03-17T18:53:22.962Z,1.22
2019-03-17T18:55:54.769Z,1.60
2019-03-17T18:58:26.976Z,1.57
2019-03-17T19:00:59.763Z,1.87
2019-03-17T19:03:30.135Z,2.13
2019-03-17T19:06:00.164Z,1.90
2019-03-17T19:08:29.099Z,1.57
2019-03-17T19:11:00.749Z,1.85
2019-03-17T19:13:30.695Z,1.85
2019-03-17T19:15:59.533Z,1.80
2019-03-17T19:18:28.126Z,1.80
2019-03-17T19:20:57.466Z,1.67
2019-03-17T19:23:28.083Z,1.85
2019-03-17T19:26:01.272Z,1.42
2019-03-17T19:28:38.354Z,1.62
2019-03-17T19:31:08.786Z,3.30
2019-03-17T19:33:38.921Z,4.25
2019-03-17T19:36:09.960Z,2.27
2019-03-17T19:38:40.199Z,1.62
2019-03-17T19:41:12.586Z,1.80
2019-03-17T19:43:46.685Z,2.02
2019-03-17T19:46:18.580Z,2.58
2019-03-17T19:48:52.643Z,2.12
2019-03-17T19:51:27.522Z,1.85
2019-03-17T19:53:56.279Z,2.40
2019-03-17T19:56:30.626Z,2.30
2019-03-17T19:59:00.898Z,2.25
2019-03-17T20:01:31.212Z,2.10
2019-03-17T20:04:03.360Z,2.30
2019-03-17T20:06:33.725Z,2.17
2019-03-17T20:09:05.843Z,3.10
2019-03-17T20:11:36.894Z,3.55
2019-03-17T20:14:07.847Z,3.77
2019-03-17T20:16:39.676Z,3.77
2019-03-17T20:19:10.239Z,3.37
2019-03-17T20:21:44.307Z,3.70
2019-03-17T20:24:18.181Z,3.42
2019-03-17T20:26:49.438Z,3.75
2019-03-17T20:29:23.969Z,2.52
2019-03-17T20:31:52.907Z,2.45
2019-03-17T20:34:21.890Z,3.35
2019-03-17T20:36:51.864Z,3.20
2019-03-17T20:39:20.814Z,3.47
2019-03-17T20:41:49.373Z,3.00
2019-03-17T20:44:20.046Z,3.08
2019-03-17T20:46:53.658Z,3.70
2019-03-17T20:51:52.318Z,3.75
2019-03-17T20:54:25.952Z,3.25
2019-03-17T20:59:26.247Z,2.67
2019-03-17T21:01:55.394Z,2.10
2019-03-17T21:04:27.354Z,2.20
2019-03-17T21:06:56.321Z,2.25
2019-03-17T21:09:25.052Z,2.42
2019-03-17T21:11:53.828Z,2.00
2019-03-17T21:14:22.982Z,3.15
2019-03-17T21:16:52.059Z,2.37
2019-03-17T21:19:22.019Z,2.87
2019-03-17T21:21:51.958Z,2.42
2019-03-17T21:24:20.853Z,2.25
2019-03-17T21:26:53.779Z,2.05
2019-03-17T21:29:24.083Z,2.67
2019-03-17T21:31:53.521Z,3.47
2019-03-17T21:34:30.464Z,2.80
2019-03-17T21:37:02.937Z,2.72
2019-03-17T21:39:32.859Z,3.20
2019-03-17T21:42:01.797Z,3.12
2019-03-17T21:44:30.366Z,3.42
2019-03-17T21:47:01.356Z,2.95
2019-03-17T21:49:30.714Z,3.72
2019-03-17T21:51:59.636Z,3.50
2019-03-17T21:54:32.855Z,3.70
2019-03-17T21:57:01.895Z,3.42
2019-03-17T21:59:31.097Z,3.40
2019-03-17T22:02:12.353Z,3.50
2019-03-17T22:04:36.635Z,3.70
2019-03-17T22:07:05.432Z,4.60
2019-03-17T22:09:33.979Z,4.65
2019-03-17T22:12:07.670Z,4.25
2019-03-17T22:14:41.363Z,3.62
2019-03-17T22:17:11.975Z,4.25
2019-03-17T22:19:41.151Z,4.80
2019-03-17T22:22:10.300Z,4.30
2019-03-17T22:24:39.286Z,4.50
2019-03-17T22:27:11.634Z,4.80
2019-03-17T22:29:40.554Z,4.65
2019-03-17T22:32:13.209Z,5.62
2019-03-17T22:34:43.673Z,5.10
2019-03-17T22:37:14.840Z,4.37
2019-03-17T22:39:45.300Z,4.03
2019-03-17T22:42:14.044Z,3.47
2019-03-17T22:44:43.009Z,3.00
2019-03-17T22:47:12.089Z,3.02
2019-03-17T22:49:43.617Z,4.03
2019-03-17T22:52:12.568Z,3.90
2019-03-17T22:54:41.514Z,3.95
2019-03-17T22:57:14.360Z,4.30
2019-03-17T22:59:44.521Z,4.35
2019-03-17T23:02:14.201Z,4.75
2019-03-17T23:04:47.640Z,4.53
2019-03-17T23:07:17.416Z,3.85
2019-03-17T23:09:47.804Z,4.47
2019-03-17T23:12:21.846Z,3.72
2019-03-17T23:14:55.320Z,3.80
2019-03-17T23:17:26.214Z,3.55
2019-03-17T23:19:54.806Z,3.37
2019-03-17T23:22:23.528Z,3.98
2019-03-17T23:24:54.763Z,4.30
2019-03-17T23:27:25.500Z,4.75
2019-03-17T23:29:56.055Z,4.22
2019-03-17T23:32:26.955Z,4.10
2019-03-17T23:34:57.081Z,4.90
2019-03-17T23:37:25.838Z,5.42
2019-03-17T23:39:56.347Z,5.08
2019-03-17T23:42:29.588Z,6.62
2019-03-17T23:44:58.844Z,5.85
2019-03-17T23:47:30.081Z,6.55
2019-03-17T23:50:01.952Z,6.05
2019-03-17T23:52:34.063Z,6.95
2019-03-17T23:55:03.409Z,6.90
2019-03-17T23:57:33.663Z,6.62
